createdAt,value
2016-02-16T00:00:46.699Z,0
2016-02-16T00:01:46.577Z,0
2016-02-16T00:02:46.736Z,0
2016-02-16T00:03:46.630Z,0
2016-02-16T00:04:46.555Z,0
2016-02-16T00:05:46.728Z,0
2016-02-16T00:06:46.450Z,0
2016-02-16T00:07:46.796Z,0
2016-02-16T00:08:46.768Z,0
2016-02-16T00:09:46.521Z,0
2016-02-16T00:10:46.649Z,0
2016-02-16T00:11:46.682Z,0
2016-02-16T00:12:46.794Z,0
2016-02-16T00:13:46.796Z,0
2016-02-16T00:14:46.752Z,0
2016-02-16T00:15:46.599Z,0
2016-02-16T00:16:46.774Z,0
2016-02-16T00:17:46.479Z,0
2016-02-16T00:18:46.529Z,0
2016-02-16T00:19:47.687Z,0
2016-02-16T00:20:46.488Z,0
2016-02-16T00:21:46.740Z,0
2016-02-16T00:22:46.087Z,0
2016-02-16T00:23:46.340Z,0
2016-02-16T00:24:46.342Z,0
2016-02-16T00:25:46.548Z,0
2016-02-16T00:26:46.442Z,0
2016-02-16T00:27:46.084Z,0
2016-02-16T00:28:46.056Z,0
2016-02-16T00:29:46.090Z,0
2016-02-16T00:30:46.045Z,0
2016-02-16T00:31:46.455Z,0
2016-02-16T00:32:45.879Z,0
2016-02-16T00:33:46.601Z,0
2016-02-16T00:34:46.635Z,0
2016-02-16T00:35:46.669Z,0
2016-02-16T00:36:46.624Z,0
2016-02-16T00:37:46.658Z,0
2016-02-16T00:38:46.521Z,0
2016-02-16T00:39:46.774Z,0
2016-02-16T00:40:46.541Z,0
2016-02-16T00:41:46.638Z,0
2016-02-16T00:42:46.563Z,0
2016-02-16T00:43:46.628Z,0
2016-02-16T00:44:46.583Z,0
2016-02-16T00:45:46.430Z,0
2016-02-16T00:46:46.198Z,0
2016-02-16T00:47:46.513Z,0
2016-02-16T00:48:46.423Z,0
2016-02-16T00:49:46.596Z,0
2016-02-16T00:50:46.568Z,0
2016-02-16T00:51:46.227Z,0
2016-02-16T00:52:46.479Z,0
2016-02-16T00:53:46.545Z,0
2016-02-16T00:54:46.376Z,0
2016-02-16T00:55:46.503Z,0
2016-02-16T00:56:46.554Z,0
2016-02-16T00:57:46.431Z,0
2016-02-16T00:58:46.230Z,0
2016-02-16T00:59:46.452Z,0
2016-02-16T01:00:46.501Z,0
2016-02-16T01:01:45.520Z,0
2016-02-16T01:02:46.164Z,0
2016-02-16T01:03:46.322Z,0
2016-02-16T01:04:45.981Z,0
2016-02-16T01:05:46.296Z,0
2016-02-16T01:06:46.392Z,0
2016-02-16T01:07:45.895Z,0
2016-02-16T01:08:45.883Z,0
2016-02-16T01:09:45.869Z,0
2016-02-16T01:10:45.856Z,0
2016-02-16T01:11:45.859Z,0
2016-02-16T01:12:45.862Z,0
2016-02-16T01:13:45.880Z,0
2016-02-16T01:14:45.852Z,0
2016-02-16T01:15:45.854Z,0
2016-02-16T01:16:45.841Z,0
2016-02-16T01:17:45.859Z,0
2016-02-16T01:18:45.831Z,0
2016-02-16T01:19:45.835Z,0
2016-02-16T01:20:45.837Z,0
2016-02-16T01:21:45.807Z,0
2016-02-16T01:22:45.810Z,0
2016-02-16T01:23:48.812Z,0
2016-02-16T01:24:45.816Z,0
2016-02-16T01:25:45.788Z,0
2016-02-16T01:26:45.821Z,0
2016-02-16T01:27:45.778Z,0
2016-02-16T01:28:45.780Z,0
2016-02-16T01:29:45.783Z,0
2016-02-16T01:30:45.801Z,0
2016-02-16T01:31:45.742Z,0
2016-02-16T01:32:45.744Z,0
2016-02-16T01:33:45.747Z,0
2016-02-16T01:34:45.733Z,0
2016-02-16T01:35:45.767Z,0
2016-02-16T01:36:44.988Z,0
2016-02-16T01:37:45.086Z,0
2016-02-16T01:38:45.010Z,0
2016-02-16T01:39:45.716Z,0
2016-02-16T01:40:45.733Z,0
2016-02-16T01:41:45.721Z,0
2016-02-16T01:42:45.708Z,0
2016-02-16T01:43:45.711Z,0
2016-02-16T01:44:45.714Z,0
2016-02-16T01:45:45.701Z,0
2016-02-16T01:46:45.703Z,0
2016-02-16T01:47:45.722Z,0
2016-02-16T01:48:45.646Z,0
2016-02-16T01:49:45.649Z,0
2016-02-16T01:50:45.668Z,0
2016-02-16T01:51:45.670Z,0
2016-02-16T01:52:45.641Z,0
2016-02-16T01:53:45.676Z,0
2016-02-16T01:54:45.631Z,0
2016-02-16T01:55:45.712Z,0
2016-02-16T01:56:45.606Z,0
2016-02-16T01:57:45.639Z,0
2016-02-16T01:58:45.642Z,0
2016-02-16T01:59:45.613Z,0
2016-02-16T02:00:45.662Z,0
2016-02-16T02:01:45.619Z,0
2016-02-16T02:02:45.622Z,0
2016-02-16T02:03:45.452Z,0
2016-02-16T02:04:45.565Z,0
2016-02-16T02:05:45.599Z,0
2016-02-16T02:06:45.571Z,0
2016-02-16T02:07:45.589Z,0
2016-02-16T02:08:45.560Z,0
2016-02-16T02:09:45.578Z,0
2016-02-16T02:10:45.551Z,0
2016-02-16T02:11:45.568Z,0
2016-02-16T02:12:45.540Z,0
2016-02-16T02:13:45.542Z,0
2016-02-16T02:14:45.561Z,0
2016-02-16T02:15:45.517Z,0
2016-02-16T02:16:45.519Z,0
2016-02-16T02:17:45.506Z,0
2016-02-16T02:18:45.509Z,0
2016-02-16T02:19:45.527Z,0
2016-02-16T02:20:45.702Z,0
2016-02-16T02:21:45.486Z,0
2016-02-16T02:22:45.519Z,0
2016-02-16T02:23:45.492Z,0
2016-02-16T02:24:45.478Z,0
2016-02-16T02:25:45.480Z,0
2016-02-16T02:26:45.483Z,0
2016-02-16T02:27:45.471Z,0
2016-02-16T02:28:45.458Z,0
2016-02-16T02:29:45.477Z,0
2016-02-16T02:30:45.448Z,0
2016-02-16T02:31:45.465Z,0
2016-02-16T02:32:45.421Z,0
2016-02-16T02:33:45.457Z,0
2016-02-16T02:34:45.412Z,0
2016-02-16T02:35:45.462Z,0
2016-02-16T02:36:45.417Z,0
2016-02-16T02:37:45.435Z,0
2016-02-16T02:38:45.437Z,0
2016-02-16T02:39:45.394Z,0
2016-02-16T02:40:45.412Z,0
2016-02-16T02:41:45.368Z,0
2016-02-16T02:42:45.386Z,0
2016-02-16T02:43:45.373Z,0
2016-02-16T02:44:45.360Z,0
2016-02-16T02:45:45.347Z,0
2016-02-16T02:46:45.351Z,0
2016-02-16T02:47:45.337Z,0
2016-02-16T02:48:45.355Z,0
2016-02-16T02:49:45.358Z,0
2016-02-16T02:50:45.344Z,0
2016-02-16T02:51:45.364Z,0
2016-02-16T02:52:45.320Z,0
2016-02-16T02:53:45.322Z,0
2016-02-16T02:54:45.308Z,0
2016-02-16T02:55:45.390Z,0
2016-02-16T02:56:44.580Z,0
2016-02-16T02:57:45.317Z,0
2016-02-16T02:58:45.289Z,0
2016-02-16T02:59:45.276Z,0
2016-02-16T03:00:45.310Z,0
2016-02-16T03:01:45.281Z,0
2016-02-16T03:02:45.268Z,0
2016-02-16T03:03:45.255Z,0
2016-02-16T03:04:45.264Z,0
2016-02-16T03:05:45.235Z,0
2016-02-16T03:06:45.238Z,0
2016-02-16T03:07:45.224Z,0
2016-02-16T03:08:45.244Z,0
2016-02-16T03:09:45.230Z,0
2016-02-16T03:10:45.233Z,0
2016-02-16T03:11:44.470Z,0
2016-02-16T03:12:45.207Z,0
2016-02-16T03:13:45.288Z,0
2016-02-16T03:14:45.213Z,0
2016-02-16T03:15:45.184Z,0
2016-02-16T03:16:45.187Z,0
2016-02-16T03:17:45.173Z,0
2016-02-16T03:18:45.176Z,0
2016-02-16T03:19:45.164Z,0
2016-02-16T03:20:45.167Z,0
2016-02-16T03:21:45.154Z,0
2016-02-16T03:22:45.140Z,0
2016-02-16T03:23:45.127Z,0
2016-02-16T03:24:45.145Z,0
2016-02-16T03:25:44.367Z,0
2016-02-16T03:26:45.120Z,0
2016-02-16T03:27:45.123Z,0
2016-02-16T03:28:45.125Z,0
2016-02-16T03:29:44.955Z,0
2016-02-16T03:30:45.099Z,0
2016-02-16T03:31:45.071Z,0
2016-02-16T03:32:45.074Z,0
2016-02-16T03:33:45.077Z,0
2016-02-16T03:34:45.079Z,0
2016-02-16T03:35:45.066Z,0
2016-02-16T03:36:45.037Z,0
2016-02-16T03:37:45.041Z,0
2016-02-16T03:38:45.043Z,0
2016-02-16T03:39:45.046Z,0
2016-02-16T03:40:45.032Z,0
2016-02-16T03:41:45.019Z,0
2016-02-16T03:42:45.053Z,0
2016-02-16T03:43:45.024Z,0
2016-02-16T03:44:44.856Z,0
2016-02-16T03:45:44.999Z,0
2016-02-16T03:46:45.001Z,0
2016-02-16T03:47:44.989Z,0
2016-02-16T03:48:45.006Z,0
2016-02-16T03:49:44.979Z,0
2016-02-16T03:50:44.982Z,0
2016-02-16T03:51:44.968Z,0
2016-02-16T03:52:44.220Z,0
2016-02-16T03:53:44.958Z,0
2016-02-16T03:54:44.945Z,0
2016-02-16T03:55:44.964Z,0
2016-02-16T03:56:44.951Z,0
2016-02-16T03:57:44.906Z,0
2016-02-16T03:58:44.955Z,0
2016-02-16T03:59:44.911Z,0
2016-02-16T04:00:44.914Z,0
2016-02-16T04:01:44.917Z,0
2016-02-16T04:02:45.030Z,0
2016-02-16T04:03:44.891Z,0
2016-02-16T04:04:44.894Z,0
2016-02-16T04:05:44.896Z,0
2016-02-16T04:06:44.868Z,0
2016-02-16T04:07:44.855Z,0
2016-02-16T04:08:44.857Z,0
2016-02-16T04:09:44.844Z,0
2016-02-16T04:10:44.847Z,0
2016-02-16T04:11:44.835Z,0
2016-02-16T04:12:44.838Z,0
2016-02-16T04:13:44.809Z,0
2016-02-16T04:14:44.811Z,0
2016-02-16T04:15:44.815Z,0
2016-02-16T04:16:44.785Z,0
2016-02-16T04:17:44.788Z,0
2016-02-16T04:18:44.791Z,0
2016-02-16T04:19:44.778Z,0
2016-02-16T04:20:44.765Z,0
2016-02-16T04:21:44.784Z,0
2016-02-16T04:22:44.755Z,0
2016-02-16T04:23:44.945Z,0
2016-02-16T04:24:44.759Z,0
2016-02-16T04:25:44.763Z,0
2016-02-16T04:26:44.750Z,0
2016-02-16T04:27:44.737Z,0
2016-02-16T04:28:44.756Z,0
2016-02-16T04:29:44.727Z,0
2016-02-16T04:30:44.727Z,0
2016-02-16T04:31:44.702Z,0
2016-02-16T04:32:44.691Z,0
2016-02-16T04:33:44.680Z,0
2016-02-16T04:34:44.639Z,0
2016-02-16T04:35:44.630Z,0
2016-02-16T04:36:44.628Z,0
2016-02-16T04:37:44.626Z,0
2016-02-16T04:38:44.591Z,0
2016-02-16T04:39:44.589Z,0
2016-02-16T04:40:44.588Z,0
2016-02-16T04:41:44.558Z,0
2016-02-16T04:42:44.544Z,0
2016-02-16T04:43:44.545Z,0
2016-02-16T04:44:44.545Z,0
2016-02-16T04:45:44.532Z,0
2016-02-16T04:46:44.517Z,0
2016-02-16T04:47:44.504Z,0
2016-02-16T04:48:44.506Z,0
2016-02-16T04:49:44.492Z,0
2016-02-16T04:50:44.494Z,0
2016-02-16T04:51:47.497Z,0
2016-02-16T04:52:44.500Z,0
2016-02-16T04:53:44.486Z,0
2016-02-16T04:54:44.488Z,0
2016-02-16T04:55:44.523Z,0
2016-02-16T04:56:44.479Z,0
2016-02-16T04:57:44.465Z,0
2016-02-16T04:58:44.453Z,0
2016-02-16T04:59:44.456Z,0
2016-02-16T05:00:44.443Z,0
2016-02-16T05:01:44.429Z,0
2016-02-16T05:02:44.448Z,0
2016-02-16T05:03:44.420Z,0
2016-02-16T05:04:44.423Z,0
2016-02-16T05:05:44.410Z,0
2016-02-16T05:06:44.396Z,0
2016-02-16T05:07:44.414Z,0
2016-02-16T05:08:44.402Z,0
2016-02-16T05:09:44.389Z,0
2016-02-16T05:10:44.392Z,0
2016-02-16T05:11:44.378Z,0
2016-02-16T05:12:44.366Z,0
2016-02-16T05:13:44.353Z,0
2016-02-16T05:14:44.356Z,0
2016-02-16T05:15:44.327Z,0
2016-02-16T05:16:44.345Z,0
2016-02-16T05:17:44.317Z,0
2016-02-16T05:18:44.319Z,0
2016-02-16T05:19:44.322Z,0
2016-02-16T05:20:44.324Z,0
2016-02-16T05:21:44.327Z,0
2016-02-16T05:22:44.143Z,0
2016-02-16T05:23:44.302Z,0
2016-02-16T05:24:44.305Z,0
2016-02-16T05:25:44.291Z,0
2016-02-16T05:26:44.279Z,0
2016-02-16T05:27:44.266Z,0
2016-02-16T05:28:44.284Z,0
2016-02-16T05:29:44.255Z,0
2016-02-16T05:30:44.274Z,0
2016-02-16T05:31:44.246Z,0
2016-02-16T05:32:44.263Z,0
2016-02-16T05:33:44.234Z,0
2016-02-16T05:34:44.237Z,0
2016-02-16T05:35:44.209Z,0
2016-02-16T05:36:44.212Z,0
2016-02-16T05:37:44.215Z,0
2016-02-16T05:38:44.201Z,0
2016-02-16T05:39:44.203Z,0
2016-02-16T05:40:44.035Z,0
2016-02-16T05:41:44.194Z,0
2016-02-16T05:42:44.180Z,0
2016-02-16T05:43:44.167Z,0
2016-02-16T05:44:44.170Z,0
2016-02-16T05:45:44.173Z,0
2016-02-16T05:46:44.176Z,0
2016-02-16T05:47:44.148Z,0
2016-02-16T05:48:44.166Z,0
2016-02-16T05:49:44.121Z,0
2016-02-16T05:50:44.139Z,0
2016-02-16T05:51:44.127Z,0
2016-02-16T05:52:44.114Z,0
2016-02-16T05:53:44.132Z,0
2016-02-16T05:54:44.088Z,0
2016-02-16T05:55:44.138Z,0
2016-02-16T05:56:44.093Z,0
2016-02-16T05:57:44.113Z,0
2016-02-16T05:58:44.083Z,0
2016-02-16T05:59:44.085Z,0
2016-02-16T06:00:44.074Z,0
2016-02-16T06:01:44.044Z,0
2016-02-16T06:02:44.079Z,0
2016-02-16T06:03:44.049Z,0
2016-02-16T06:04:44.084Z,0
2016-02-16T06:05:44.041Z,0
2016-02-16T06:06:44.043Z,0
2016-02-16T06:07:44.030Z,0
2016-02-16T06:08:44.033Z,0
2016-02-16T06:09:43.269Z,0
2016-02-16T06:10:44.007Z,0
2016-02-16T06:11:43.994Z,0
2016-02-16T06:12:44.012Z,0
2016-02-16T06:13:43.984Z,0
2016-02-16T06:14:43.955Z,0
2016-02-16T06:15:43.974Z,0
2016-02-16T06:16:43.976Z,0
2016-02-16T06:17:43.963Z,0
2016-02-16T06:18:43.951Z,0
2016-02-16T06:19:43.968Z,0
2016-02-16T06:20:43.940Z,0
2016-02-16T06:21:43.942Z,0
2016-02-16T06:22:43.930Z,0
2016-02-16T06:23:43.948Z,5
2016-02-16T06:24:43.920Z,5
2016-02-16T06:25:43.937Z,5
2016-02-16T06:26:43.894Z,5
2016-02-16T06:27:43.928Z,5
2016-02-16T06:28:43.914Z,5
2016-02-16T06:29:43.886Z,5
2016-02-16T06:30:43.889Z,5
2016-02-16T06:31:43.875Z,5
2016-02-16T06:32:43.911Z,5
2016-02-16T06:33:43.834Z,5
2016-02-16T06:34:43.884Z,5
2016-02-16T06:35:43.840Z,5
2016-02-16T06:36:43.859Z,5
2016-02-16T06:37:43.829Z,5
2016-02-16T06:38:43.677Z,5
2016-02-16T06:39:43.804Z,5
2016-02-16T06:40:43.822Z,5
2016-02-16T06:41:43.809Z,5
2016-02-16T06:42:43.780Z,5
2016-02-16T06:43:43.783Z,5
2016-02-16T06:44:43.770Z,5
2016-02-16T06:45:43.773Z,5
2016-02-16T06:46:43.760Z,5
2016-02-16T06:47:43.746Z,5
2016-02-16T06:48:43.766Z,5
2016-02-16T06:49:43.799Z,10
2016-02-16T06:50:43.740Z,10
2016-02-16T06:51:43.742Z,10
2016-02-16T06:52:43.729Z,10
2016-02-16T06:53:43.717Z,10
2016-02-16T06:54:43.735Z,10
2016-02-16T06:55:43.738Z,10
2016-02-16T06:56:43.740Z,10
2016-02-16T06:57:43.696Z,10
2016-02-16T06:58:43.698Z,10
2016-02-16T06:59:43.686Z,10
2016-02-16T07:00:43.689Z,10
2016-02-16T07:01:43.675Z,10
2016-02-16T07:02:43.678Z,10
2016-02-16T07:03:43.681Z,10
2016-02-16T07:04:43.683Z,10
2016-02-16T07:05:43.639Z,15
2016-02-16T07:06:43.658Z,15
2016-02-16T07:07:43.660Z,15
2016-02-16T07:08:43.663Z,15
2016-02-16T07:09:43.619Z,15
2016-02-16T07:10:43.638Z,15
2016-02-16T07:11:43.593Z,15
2016-02-16T07:12:43.611Z,15
2016-02-16T07:13:43.583Z,15
2016-02-16T07:14:43.632Z,15
2016-02-16T07:15:43.588Z,15
2016-02-16T07:16:43.638Z,15
2016-02-16T07:21:03.992Z,15
2016-02-16T07:21:32.710Z,20
2016-02-16T07:22:32.745Z,20
2016-02-16T07:23:32.559Z,20
2016-02-16T07:24:32.735Z,20
2016-02-16T07:25:32.690Z,20
2016-02-16T07:26:32.709Z,20
2016-02-16T07:27:32.696Z,25
2016-02-16T07:28:32.668Z,25
2016-02-16T07:29:32.670Z,20
2016-02-16T07:30:32.673Z,20
2016-02-16T07:31:32.676Z,25
2016-02-16T07:33:03.931Z,20
2016-02-16T07:33:32.634Z,25
2016-02-16T07:34:32.636Z,25
2016-02-16T07:35:32.858Z,25
2016-02-16T07:36:32.626Z,25
2016-02-16T07:37:32.613Z,25
2016-02-16T07:38:32.600Z,25
2016-02-16T07:39:32.650Z,25
2016-02-16T07:40:32.591Z,25
2016-02-16T07:41:32.639Z,20
2016-02-16T07:42:32.580Z,25
2016-02-16T07:43:32.566Z,25
2016-02-16T07:44:32.570Z,25
2016-02-16T07:45:32.572Z,25
2016-02-16T07:46:32.575Z,25
2016-02-16T07:47:32.562Z,25
2016-02-16T07:48:32.565Z,25
2016-02-16T07:49:32.521Z,30
2016-02-16T07:50:32.524Z,30
2016-02-16T07:51:32.557Z,30
2016-02-16T07:52:32.498Z,30
2016-02-16T07:53:32.547Z,30
2016-02-16T07:54:32.503Z,30
2016-02-16T07:55:32.521Z,30
2016-02-16T07:56:32.524Z,30
2016-02-16T07:57:32.511Z,30
2016-02-16T07:58:32.482Z,30
2016-02-16T07:59:32.470Z,30
2016-02-16T08:00:32.487Z,30
2016-02-16T08:01:32.475Z,30
2016-02-16T08:02:32.446Z,30
2016-02-16T08:03:32.464Z,30
2016-02-16T08:04:32.468Z,35
2016-02-16T08:05:32.454Z,35
2016-02-16T08:06:32.457Z,35
2016-02-16T08:07:32.428Z,35
2016-02-16T08:08:32.447Z,35
2016-02-16T08:09:32.449Z,35
2016-02-16T08:10:32.390Z,40
2016-02-16T08:11:32.424Z,40
2016-02-16T08:12:32.645Z,40
2016-02-16T08:13:32.414Z,40
2016-02-16T08:14:32.433Z,40
2016-02-16T08:15:32.435Z,40
2016-02-16T08:16:32.640Z,40
2016-02-16T08:17:32.377Z,40
2016-02-16T08:18:32.364Z,40
2016-02-16T08:19:32.383Z,40
2016-02-16T08:20:32.338Z,40
2016-02-16T08:21:31.872Z,40
2016-02-16T08:22:32.328Z,40
2016-02-16T08:23:32.346Z,45
2016-02-16T08:24:32.334Z,45
2016-02-16T08:25:32.337Z,45
2016-02-16T08:26:32.307Z,45
2016-02-16T08:27:32.310Z,45
2016-02-16T08:28:32.298Z,45
2016-02-16T08:29:32.301Z,45
2016-02-16T08:30:32.850Z,45
2016-02-16T08:31:32.290Z,50
2016-02-16T08:32:32.276Z,50
2016-02-16T08:33:32.248Z,50
2016-02-16T08:34:32.298Z,50
2016-02-16T08:35:32.238Z,55
2016-02-16T08:36:32.256Z,55
2016-02-16T08:37:32.259Z,55
2016-02-16T08:38:32.231Z,55
2016-02-16T08:39:32.233Z,55
2016-02-16T08:40:32.220Z,55
2016-02-16T08:41:32.223Z,55
2016-02-16T08:42:32.210Z,55
2016-02-16T08:43:32.260Z,55
2016-02-16T08:44:32.200Z,55
2016-02-16T08:45:32.249Z,60
2016-02-16T08:46:32.190Z,60
2016-02-16T08:47:32.224Z,60
2016-02-16T08:48:32.164Z,60
2016-02-16T08:49:32.198Z,60
2016-02-16T08:50:32.169Z,60
2016-02-16T08:51:32.218Z,55
2016-02-16T08:52:32.143Z,55
2016-02-16T08:53:32.146Z,60
2016-02-16T08:54:32.196Z,60
2016-02-16T08:55:32.151Z,60
2016-02-16T08:56:32.185Z,60
2016-02-16T08:57:32.126Z,60
2016-02-16T08:58:32.128Z,60
2016-02-16T08:59:32.116Z,55
2016-02-16T09:00:32.134Z,60
2016-02-16T09:01:32.137Z,55
2016-02-16T09:02:32.154Z,55
2016-02-16T09:03:32.110Z,55
2016-02-16T09:04:32.097Z,55
2016-02-16T09:05:32.084Z,55
2016-02-16T09:06:32.165Z,60
2016-02-16T09:07:32.090Z,60
2016-02-16T09:08:32.061Z,60
2016-02-16T09:09:32.048Z,60
2016-02-16T09:10:32.051Z,55
2016-02-16T09:11:32.101Z,55
2016-02-16T09:12:32.603Z,55
2016-02-16T09:13:32.622Z,55
2016-02-16T09:14:32.640Z,60
2016-02-16T09:15:32.658Z,60
2016-02-16T09:16:32.708Z,60
2016-02-16T09:17:32.444Z,60
2016-02-16T09:18:32.635Z,60
2016-02-16T09:19:32.747Z,60
2016-02-16T09:20:32.671Z,60
2016-02-16T09:21:32.628Z,55
2016-02-16T09:22:32.583Z,55
2016-02-16T09:23:31.868Z,55
2016-02-16T09:24:32.667Z,55
2016-02-16T09:25:32.841Z,55
2016-02-16T09:26:32.547Z,55
2016-02-16T09:27:32.519Z,55
2016-02-16T09:28:32.427Z,55
2016-02-16T09:29:32.587Z,55
2016-02-16T09:30:32.668Z,55
2016-02-16T09:31:32.623Z,55
2016-02-16T09:32:32.407Z,55
2016-02-16T09:33:32.566Z,55
2016-02-16T09:34:32.616Z,60
2016-02-16T09:35:32.587Z,60
2016-02-16T09:36:32.356Z,65
2016-02-16T09:37:32.452Z,70
2016-02-16T09:38:31.924Z,70
2016-02-16T09:39:31.879Z,70
2016-02-16T09:40:31.929Z,70
2016-02-16T09:41:31.869Z,75
2016-02-16T09:42:31.872Z,80
2016-02-16T09:43:31.859Z,80
2016-02-16T09:44:31.878Z,80
2016-02-16T09:45:31.864Z,80
2016-02-16T09:46:31.851Z,85
2016-02-16T09:47:31.869Z,85
2016-02-16T09:48:31.825Z,85
2016-02-16T09:49:32.421Z,90
2016-02-16T09:50:31.784Z,95
2016-02-16T09:51:32.272Z,95
2016-02-16T09:52:32.586Z,100
2016-02-16T09:53:32.355Z,100
2016-02-16T09:54:32.388Z,105
2016-02-16T09:55:32.438Z,110
2016-02-16T09:56:32.471Z,115
2016-02-16T09:57:32.209Z,120
2016-02-16T09:58:32.446Z,120
2016-02-16T09:59:32.371Z,125
2016-02-16T10:00:32.405Z,130
2016-02-16T10:01:32.360Z,130
2016-02-16T10:02:31.769Z,125
2016-02-16T10:03:32.006Z,115
2016-02-16T10:04:31.946Z,110
2016-02-16T10:05:32.121Z,100
2016-02-16T10:06:31.952Z,100
2016-02-16T10:07:32.454Z,100
2016-02-16T10:08:32.410Z,105
2016-02-16T10:09:31.975Z,105
2016-02-16T10:10:32.306Z,105
2016-02-16T10:11:32.122Z,100
2016-02-16T10:12:32.077Z,95
2016-02-16T10:13:31.706Z,90
2016-02-16T10:14:31.693Z,90
2016-02-16T10:15:31.679Z,90
2016-02-16T10:16:31.667Z,95
2016-02-16T10:17:31.684Z,95
2016-02-16T10:18:31.516Z,95
2016-02-16T10:19:31.706Z,95
2016-02-16T10:20:31.865Z,95
2016-02-16T10:21:31.633Z,90
2016-02-16T10:22:32.386Z,90
2016-02-16T10:23:32.325Z,90
2016-02-16T10:24:31.985Z,95
2016-02-16T10:25:32.346Z,95
2016-02-16T10:26:31.833Z,100
2016-02-16T10:27:32.055Z,100
2016-02-16T10:28:32.074Z,100
2016-02-16T10:29:32.030Z,105
2016-02-16T10:30:31.985Z,115
2016-02-16T10:31:31.988Z,125
2016-02-16T10:32:32.443Z,135
2016-02-16T10:33:32.415Z,140
2016-02-16T10:34:31.745Z,145
2016-02-16T10:35:32.077Z,150
2016-02-16T10:36:31.846Z,155
2016-02-16T10:37:31.660Z,175
2016-02-16T10:38:31.881Z,190
2016-02-16T10:39:32.009Z,205
2016-02-16T10:40:31.871Z,210
2016-02-16T10:41:32.202Z,220
2016-02-16T10:42:31.955Z,225
2016-02-16T10:43:32.583Z,225
2016-02-16T10:44:31.664Z,225
2016-02-16T10:45:31.807Z,225
2016-02-16T10:46:31.841Z,220
2016-02-16T10:47:31.827Z,215
2016-02-16T10:48:31.737Z,205
2016-02-16T10:49:31.678Z,190
2016-02-16T10:50:30.805Z,180
2016-02-16T10:51:32.183Z,170
2016-02-16T10:52:32.122Z,175
2016-02-16T10:53:32.047Z,185
2016-02-16T10:54:32.065Z,195
2016-02-16T10:55:32.271Z,200
2016-02-16T10:56:32.119Z,195
2016-02-16T10:57:32.074Z,200
2016-02-16T10:58:31.936Z,205
2016-02-16T10:59:32.001Z,195
2016-02-16T11:00:31.925Z,180
2016-02-16T11:01:32.521Z,170
2016-02-16T11:02:32.072Z,165
2016-02-16T11:03:32.090Z,165
2016-02-16T11:04:32.046Z,165
2016-02-16T11:05:32.079Z,165
2016-02-16T11:06:32.629Z,160
2016-02-16T11:07:31.787Z,155
2016-02-16T11:08:32.135Z,150
2016-02-16T11:09:31.731Z,150
2016-02-16T11:10:32.374Z,150
2016-02-16T11:11:31.940Z,150
2016-02-16T11:12:31.973Z,150
2016-02-16T11:13:31.757Z,155
2016-02-16T11:14:32.041Z,150
2016-02-16T11:15:31.684Z,155
2016-02-16T11:16:31.733Z,155
2016-02-16T11:17:32.003Z,145
2016-02-16T11:18:31.881Z,140
2016-02-16T11:19:31.976Z,135
2016-02-16T11:20:31.933Z,130
2016-02-16T11:21:31.919Z,130
2016-02-16T11:22:31.641Z,130
2016-02-16T11:23:31.956Z,130
2016-02-16T11:24:31.881Z,125
2016-02-16T11:25:32.321Z,130
2016-02-16T11:26:32.105Z,130
2016-02-16T11:27:31.858Z,135
2016-02-16T11:28:31.927Z,135
2016-02-16T11:29:32.024Z,135
2016-02-16T11:30:31.917Z,125
2016-02-16T11:31:32.076Z,130
2016-02-16T11:32:31.282Z,125
2016-02-16T11:33:31.534Z,125
2016-02-16T11:34:31.928Z,120
2016-02-16T11:35:31.821Z,115
2016-02-16T11:36:31.776Z,105
2016-02-16T11:37:31.764Z,100
2016-02-16T11:38:31.689Z,95
2016-02-16T11:39:31.879Z,95
2016-02-16T11:40:31.757Z,100
2016-02-16T11:41:31.572Z,100
2016-02-16T11:42:31.512Z,105
2016-02-16T11:43:31.639Z,110
2016-02-16T11:44:31.642Z,120
2016-02-16T11:45:31.817Z,120
2016-02-16T11:46:31.898Z,130
2016-02-16T11:47:31.713Z,120
2016-02-16T11:48:31.700Z,110
2016-02-16T11:49:31.593Z,110
2016-02-16T11:50:31.830Z,110
2016-02-16T11:51:31.708Z,110
2016-02-16T11:52:30.914Z,115
2016-02-16T11:53:31.822Z,120
2016-02-16T11:54:31.544Z,120
2016-02-16T11:55:31.641Z,125
2016-02-16T11:56:31.783Z,130
2016-02-16T11:57:31.630Z,125
2016-02-16T11:58:32.133Z,115
2016-02-16T11:59:31.824Z,115
2016-02-16T12:00:31.560Z,120
2016-02-16T12:01:31.579Z,120
2016-02-16T12:02:31.674Z,120
2016-02-16T12:03:31.428Z,125
2016-02-16T12:04:31.415Z,130
2016-02-16T12:05:31.491Z,140
2016-02-16T12:06:31.629Z,145
2016-02-16T12:07:31.429Z,150
2016-02-16T12:08:31.618Z,150
2016-02-16T12:09:31.621Z,150
2016-02-16T12:10:31.562Z,150
2016-02-16T12:11:31.690Z,155
2016-02-16T12:12:31.614Z,155
2016-02-16T12:13:31.445Z,155
2016-02-16T12:14:30.901Z,150
2016-02-16T12:15:30.607Z,150
2016-02-16T12:16:31.593Z,150
2016-02-16T12:17:31.440Z,150
2016-02-16T12:18:31.443Z,150
2016-02-16T12:19:31.554Z,150
2016-02-16T12:20:31.604Z,155
2016-02-16T12:21:31.419Z,165
2016-02-16T12:22:31.406Z,165
2016-02-16T12:23:31.629Z,160
2016-02-16T12:24:31.303Z,155
2016-02-16T12:25:30.650Z,155
2016-02-16T12:26:31.386Z,155
2016-02-16T12:27:31.357Z,155
2016-02-16T12:28:31.408Z,150
2016-02-16T12:29:31.316Z,150
2016-02-16T12:30:31.506Z,155
2016-02-16T12:31:31.369Z,150
2016-02-16T12:32:31.621Z,135
2016-02-16T12:33:31.264Z,125
2016-02-16T12:34:30.674Z,120
2016-02-16T12:35:31.457Z,120
2016-02-16T12:36:31.523Z,125
2016-02-16T12:37:31.494Z,120
2016-02-16T12:38:31.277Z,125
2016-02-16T12:39:31.312Z,130
2016-02-16T12:40:31.439Z,140
2016-02-16T12:41:31.395Z,140
2016-02-16T12:42:31.508Z,145
2016-02-16T12:43:31.526Z,140
2016-02-16T12:44:31.465Z,135
2016-02-16T12:45:31.329Z,125
2016-02-16T12:46:31.440Z,120
2016-02-16T12:47:31.270Z,120
2016-02-16T12:48:31.257Z,120
2016-02-16T12:49:31.135Z,110
2016-02-16T12:50:31.512Z,105
2016-02-16T12:51:31.391Z,105
2016-02-16T12:52:31.300Z,105
2016-02-16T12:53:31.803Z,115
2016-02-16T12:54:31.055Z,120
2016-02-16T12:55:31.276Z,120
2016-02-16T12:56:30.904Z,115
2016-02-16T12:57:31.328Z,110
2016-02-16T12:58:31.520Z,110
2016-02-16T12:59:31.522Z,110
2016-02-16T13:00:31.289Z,115
2016-02-16T13:01:31.480Z,115
2016-02-16T13:02:31.280Z,120
2016-02-16T13:03:31.485Z,115
2016-02-16T13:04:31.270Z,110
2016-02-16T13:05:31.319Z,110
2016-02-16T13:06:31.697Z,115
2016-02-16T13:07:31.293Z,120
2016-02-16T13:08:31.327Z,115
2016-02-16T13:09:31.345Z,110
2016-02-16T13:10:31.410Z,105
2016-02-16T13:11:31.288Z,110
2016-02-16T13:12:30.603Z,110
2016-02-16T13:13:31.513Z,115
2016-02-16T13:14:31.374Z,120
2016-02-16T13:15:31.284Z,130
2016-02-16T13:16:30.864Z,130
2016-02-16T13:17:31.429Z,130
2016-02-16T13:18:30.760Z,120
2016-02-16T13:19:30.762Z,115
2016-02-16T13:20:30.750Z,110
2016-02-16T13:21:32.096Z,110
2016-02-16T13:22:31.787Z,110
2016-02-16T13:23:31.226Z,110
2016-02-16T13:24:30.808Z,110
2016-02-16T13:25:31.731Z,115
2016-02-16T13:26:31.001Z,115
2016-02-16T13:27:31.300Z,115
2016-02-16T13:28:30.928Z,115
2016-02-16T13:29:31.009Z,110
2016-02-16T13:30:30.856Z,115
2016-02-16T13:31:30.889Z,115
2016-02-16T13:32:30.798Z,110
2016-02-16T13:33:30.769Z,115
2016-02-16T13:34:30.789Z,110
2016-02-16T13:35:30.806Z,115
2016-02-16T13:36:30.808Z,115
2016-02-16T13:37:30.741Z,115
2016-02-16T13:38:30.790Z,115
2016-02-16T13:39:30.622Z,115
2016-02-16T13:40:30.579Z,115
2016-02-16T13:41:30.566Z,115
2016-02-16T13:42:30.872Z,115
2016-02-16T13:43:31.994Z,110
2016-02-16T13:44:31.132Z,100
2016-02-16T13:45:30.880Z,95
2016-02-16T13:46:31.002Z,85
2016-02-16T13:47:30.892Z,85
2016-02-16T13:48:30.783Z,85
2016-02-16T13:49:30.815Z,85
2016-02-16T13:50:31.051Z,85
2016-02-16T13:51:30.723Z,85
2016-02-16T13:52:30.475Z,85
2016-02-16T13:53:32.680Z,80
2016-02-16T13:54:30.947Z,80
2016-02-16T13:55:30.637Z,80
2016-02-16T13:56:30.888Z,85
2016-02-16T13:57:30.860Z,85
2016-02-16T13:58:30.815Z,85
2016-02-16T13:59:30.989Z,85
2016-02-16T14:00:30.772Z,85
2016-02-16T14:01:30.681Z,80
2016-02-16T14:02:30.762Z,80
2016-02-16T14:03:31.092Z,80
2016-02-16T14:04:30.595Z,80
2016-02-16T14:05:30.708Z,80
2016-02-16T14:06:30.914Z,80
2016-02-16T14:07:30.807Z,80
2016-02-16T14:08:30.778Z,80
2016-02-16T14:09:30.905Z,80
2016-02-16T14:10:30.527Z,75
2016-02-16T14:11:30.650Z,70
2016-02-16T14:12:31.213Z,65
2016-02-16T14:13:30.622Z,65
2016-02-16T14:14:30.781Z,60
2016-02-16T14:15:30.846Z,60
2016-02-16T14:16:30.615Z,60
2016-02-16T14:17:30.696Z,60
2016-02-16T14:18:30.635Z,60
2016-02-16T14:19:30.513Z,60
2016-02-16T14:20:30.548Z,60
2016-02-16T14:21:30.316Z,60
2016-02-16T14:22:30.311Z,60
2016-02-16T14:23:31.596Z,60
2016-02-16T14:24:31.691Z,60
2016-02-16T14:25:32.117Z,60